Time;durP1;ratioP1;P1;durP2;ratioP2;P2;SDS_P1;SDS_P2;PMS_P1;PMS_P2;Temp;Humidity;BMP_temperature;BMP_pressure;BME280_temperature;BME280_humidity;BME280_pressure;Samples;Min_cycle;Max_cycle;Signal;HPM_P1;HPM_P2
2022/12/17 13:05:59;;;;;;;28.83;21.60;;;;;;;-0.19;79.38;102088.34;5050892;28;20252;-75
2022/12/17 13:08:26;;;;;;;32.57;22.33;;;;;;;-0.21;79.73;102079.69;5050580;28;20242;-75
2022/12/17 13:10:54;;;;;;;26.17;23.33;;;;;;;-0.36;80.36;102069.50;5050291;28;20246;-75
2022/12/17 13:13:34;;;;;;;22.60;20.40;;;;;;;-0.39;80.51;102046.28;5050373;28;20226;-75
2022/12/17 13:16:04;;;;;;;23.73;21.27;;;;;;;-0.47;81.24;102033.06;5050609;28;20747;-75
2022/12/17 13:18:36;;;;;;;23.83;20.87;;;;;;;-0.52;81.75;102024.22;5049972;28;20205;-75
2022/12/17 13:21:05;;;;;;;23.60;20.50;;;;;;;-0.58;81.71;102010.22;5050296;28;20225;-75
2022/12/17 13:23:35;;;;;;;24.83;21.07;;;;;;;-0.52;81.87;101995.13;5050391;28;20225;-75
2022/12/17 13:26:23;;;;;;;25.53;21.67;;;;;;;-0.57;81.60;101991.47;5050410;28;20214;-75
2022/12/17 13:29:00;;;;;;;20.50;18.20;;;;;;;-0.66;81.97;101977.34;5050283;28;20214;-75
2022/12/17 13:31:29;;;;;;;19.90;17.90;;;;;;;-0.67;82.43;101973.03;5049896;28;20565;-75
2022/12/17 13:34:07;;;;;;;17.63;15.80;;;;;;;-0.72;82.31;101966.78;5049978;28;20236;-75
2022/12/17 13:36:42;;;;;;;17.60;15.90;;;;;;;-0.74;82.66;101952.13;5050192;28;20209;-75
2022/12/17 13:39:23;;;;;;;17.80;16.03;;;;;;;-0.87;83.50;101946.38;5050298;28;20207;-75
2022/12/17 13:41:53;;;;;;;16.50;14.80;;;;;;;-0.78;83.06;101934.84;5049803;28;20594;-75
2022/12/17 13:44:24;;;;;;;17.33;15.07;;;;;;;-0.83;83.05;101932.03;5050007;28;20237;-75
2022/12/17 13:46:52;;;;;;;14.50;13.10;;;;;;;-0.73;82.61;101935.94;5050230;28;20231;-75
2022/12/17 13:49:23;;;;;;;14.03;12.70;;;;;;;-0.66;82.59;101954.28;5049464;28;20209;-75
2022/12/17 13:52:00;;;;;;;12.53;10.83;;;;;;;-0.78;82.41;101955.34;5049319;28;20205;-75
2022/12/17 13:54:27;;;;;;;11.50;9.63;;;;;;;-0.88;82.22;101964.22;5049803;28;20316;-75
2022/12/17 13:56:54;;;;;;;9.90;9.00;;;;;;;-0.87;81.86;101973.69;5050030;28;20213;-74
2022/12/17 13:59:22;;;;;;;10.07;9.17;;;;;;;-0.87;81.24;101984.84;5049622;28;20722;-75
2022/12/17 14:01:51;;;;;;;8.13;7.40;;;;;;;-0.98;81.47;102000.44;5049165;28;20707;-75
2022/12/17 14:04:24;;;;;;;7.90;7.13;;;;;;;-1.01;81.18;102008.84;5049433;28;20217;-75
2022/12/17 14:06:52;;;;;;;7.70;7.00;;;;;;;-0.94;81.34;102012.63;5049328;28;20680;-75
2022/12/17 14:09:21;;;;;;;6.73;5.07;;;;;;;-1.07;79.58;102054.63;5049601;28;20214;-75
2022/12/17 14:14:34;;;;;;;5.40;4.83;;;;;;;-1.02;79.70;102084.84;5049308;28;20228;-75
2022/12/17 14:17:01;;;;;;;4.07;3.77;;;;;;;-1.12;79.88;102099.63;5049008;28;20336;-75
2022/12/17 14:19:30;;;;;;;5.23;4.73;;;;;;;-1.15;80.16;102096.88;5049297;28;20225;-75
2022/12/17 14:21:57;;;;;;;4.40;4.00;;;;;;;-1.26;80.53;102094.63;5048940;28;20210;-75
2022/12/17 14:24:27;;;;;;;4.23;3.83;;;;;;;-1.20;80.62;102088.94;5049293;28;20228;-75
2022/12/17 14:26:57;;;;;;;3.90;3.57;;;;;;;-1.18;79.64;102100.16;5049026;28;20205;-75
2022/12/17 14:29:24;;;;;;;4.37;3.73;;;;;;;-1.24;78.16;102126.31;5049126;28;20747;-75
2022/12/17 14:31:52;;;;;;;4.70;3.97;;;;;;;-1.15;78.20;102140.44;5047752;28;20216;-75
2022/12/17 14:34:19;;;;;;;5.43;3.83;;;;;;;-1.10;77.75;102162.09;5048714;28;20626;-75
2022/12/17 14:36:54;;;;;;;3.67;3.37;;;;;;;-0.98;78.32;102169.59;5048925;28;20308;-75
2022/12/17 14:39:24;;;;;;;3.60;3.30;;;;;;;-1.05;78.31;102166.69;5048942;28;20296;-75
2022/12/17 14:44:40;;;;;;;7.90;5.13;;;;;;;-1.14;78.05;102186.66;5049098;28;20205;-75
2022/12/17 14:47:13;;;;;;;4.17;3.50;;;;;;;-1.06;78.56;102184.53;5048969;28;20213;-75
2022/12/17 14:49:52;;;;;;;3.57;3.10;;;;;;;-1.12;78.53;102182.50;5048446;28;20233;-75
2022/12/17 14:52:26;;;;;;;5.53;3.90;;;;;;;-1.14;78.20;102178.09;5048821;28;20197;-75
2022/12/17 14:54:53;;;;;;;3.93;3.37;;;;;;;-1.23;78.16;102186.13;5048787;28;20244;-75
2022/12/17 14:57:21;;;;;;;3.97;3.60;;;;;;;-1.28;77.78;102201.22;5048739;28;20250;-75
2022/12/17 14:59:49;;;;;;;5.67;3.50;;;;;;;-1.25;78.06;102198.88;5048304;28;20652;-74
2022/12/17 15:02:22;;;;;;;6.43;4.37;;;;;;;-1.42;77.90;102200.44;5048554;28;20205;-75
2022/12/17 15:04:49;;;;;;;5.60;4.27;;;;;;;-1.38;78.49;102196.38;5049116;28;20206;-75
2022/12/17 15:07:24;;;;;;;4.30;3.50;;;;;;;-1.32;78.03;102191.59;5086006;23;20746;-79
2022/12/17 15:09:54;;;;;;;5.17;4.10;;;;;;;-1.36;77.81;102194.78;5071914;28;20243;-80
2022/12/17 15:12:22;;;;;;;4.13;3.47;;;;;;;-1.38;77.49;102204.06;5070781;28;20299;-77
2022/12/17 15:14:48;;;;;;;5.57;3.37;;;;;;;-1.40;76.86;102218.47;5073426;28;20231;-77
2022/12/17 15:17:15;;;;;;;4.43;4.03;;;;;;;-1.41;76.89;102222.72;5073531;28;20221;-78
2022/12/17 15:19:42;;;;;;;7.53;4.30;;;;;;;-1.51;76.97;102233.19;5072963;28;20572;-80
2022/12/17 15:22:15;;;;;;;5.57;4.77;;;;;;;-1.44;77.48;102231.88;5072855;28;20209;-79
2022/12/17 15:24:43;;;;;;;7.53;5.73;;;;;;;-1.51;77.86;102225.50;5072881;28;20220;-79
2022/12/17 15:27:13;;;;;;;7.03;6.33;;;;;;;-1.68;78.34;102216.84;5073910;28;20229;-80
2022/12/17 15:29:40;;;;;;;7.87;6.57;;;;;;;-1.68;78.57;102205.72;5073827;28;20236;-79
2022/12/17 15:32:06;;;;;;;9.83;6.67;;;;;;;-1.65;78.29;102185.41;5073476;28;20204;-80
2022/12/17 15:34:33;;;;;;;7.23;6.53;;;;;;;-1.64;78.80;102174.38;5073845;28;20224;-79
2022/12/17 15:36:59;;;;;;;7.20;6.50;;;;;;;-1.65;79.19;102168.34;5068042;28;20225;-79
2022/12/17 15:39:25;;;;;;;8.03;5.87;;;;;;;-1.71;79.07;102165.44;5057628;28;20220;-79
2022/12/17 15:44:37;;;;;;;7.23;5.60;;;;;;;-1.71;79.11;102162.88;5057278;28;20686;-78
2022/12/17 15:47:04;;;;;;;7.83;7.03;;;;;;;-1.80;79.23;102163.22;5056271;28;20221;-80
2022/12/17 15:49:30;;;;;;;6.87;6.23;;;;;;;-1.87;79.23;102152.53;5056666;28;20575;-80
2022/12/17 15:51:57;;;;;;;6.50;5.00;;;;;;;-1.89;79.08;102156.69;5056411;28;20210;-80
2022/12/17 15:54:24;;;;;;;5.77;5.27;;;;;;;-1.97;79.20;102148.53;5057800;28;20229;-81
2022/12/17 15:56:59;;;;;;;5.37;4.93;;;;;;;-2.01;79.10;102144.91;5078083;28;20232;-79
2022/12/17 15:59:26;;;;;;;5.23;4.73;;;;;;;-1.94;79.07;102147.84;5075547;28;20208;-81
2022/12/17 16:01:56;;;;;;;7.87;5.10;;;;;;;-2.03;78.69;102146.50;5075518;28;20295;-79
2022/12/17 16:04:26;;;;;;;8.30;5.53;;;;;;;-2.01;78.74;102149.16;5075785;28;20262;-80
2022/12/17 16:06:53;;;;;;;6.70;6.00;;;;;;;-1.93;79.11;102152.19;5075538;28;20457;-79
2022/12/17 16:09:24;;;;;;;5.43;4.83;;;;;;;-1.96;78.69;102150.31;5077751;28;20201;-79
2022/12/17 16:11:59;;;;;;;4.97;4.47;;;;;;;-1.98;78.87;102162.16;5078457;28;20215;-80
2022/12/17 16:14:26;;;;;;;5.27;4.57;;;;;;;-2.00;78.71;102156.06;5077248;28;20232;-79
2022/12/17 16:16:53;;;;;;;5.43;4.53;;;;;;;-2.10;78.50;102169.06;5077500;28;20308;-80
2022/12/17 16:19:19;;;;;;;5.77;4.80;;;;;;;-2.06;78.67;102177.03;5077229;28;20204;-79
2022/12/17 16:21:46;;;;;;;4.50;4.10;;;;;;;-2.16;78.81;102182.38;5076972;28;20201;-78
2022/12/17 16:24:12;;;;;;;5.67;4.60;;;;;;;-2.16;78.81;102172.16;5077242;28;20200;-79
2022/12/17 16:26:39;;;;;;;6.33;4.63;;;;;;;-2.11;78.52;102169.88;5078562;28;20225;-77
2022/12/17 16:29:07;;;;;;;8.10;5.07;;;;;;;-2.18;78.85;102177.94;5075527;28;20201;-78
2022/12/17 16:31:33;;;;;;;8.43;6.27;;;;;;;-2.27;78.65;102176.59;5075365;28;20216;-79
2022/12/17 16:34:00;;;;;;;5.40;4.27;;;;;;;-2.32;78.51;102180.56;5075853;28;20277;-80
2022/12/17 16:36:34;;;;;;;6.57;4.60;;;;;;;-2.35;79.00;102180.38;5076993;28;20696;-80
2022/12/17 16:39:03;;;;;;;5.40;4.90;;;;;;;-2.38;79.06;102181.84;5092482;28;20218;-82
2022/12/17 16:41:36;;;;;;;6.50;5.13;;;;;;;-2.36;78.84;102176.03;5092772;28;20205;-79
2022/12/17 16:44:03;;;;;;;8.23;6.00;;;;;;;-2.37;78.81;102181.06;5094666;28;20260;-81
2022/12/17 16:46:33;;;;;;;7.37;6.57;;;;;;;-2.37;78.58;102178.50;5095207;28;20228;-81
2022/12/17 16:49:05;;;;;;;8.70;6.53;;;;;;;-2.47;78.42;102184.72;5091874;28;20240;-79
2022/12/17 16:51:32;;;;;;;8.03;7.23;;;;;;;-2.52;78.97;102192.09;5075825;28;20201;-78
2022/12/17 16:53:59;;;;;;;6.87;6.17;;;;;;;-2.57;79.03;102188.38;5074951;28;20244;-79
2022/12/17 16:56:27;;;;;;;8.27;7.43;;;;;;;-2.62;78.87;102188.09;5080453;28;20221;-80
2022/12/17 16:58:55;;;;;;;8.77;6.70;;;;;;;-2.66;79.25;102183.56;5077183;28;20287;-79
2022/12/17 17:01:27;;;;;;;7.47;6.77;;;;;;;-2.67;79.17;102178.38;5075566;28;20228;-78
2022/12/17 17:03:55;;;;;;;7.13;6.47;;;;;;;-2.55;80.16;102165.47;5074750;28;20212;-79
2022/12/17 17:06:23;;;;;;;7.07;6.43;;;;;;;-2.50;79.48;102162.38;5074743;28;20270;-79
2022/12/17 17:08:50;;;;;;;8.87;6.90;;;;;;;-2.47;79.29;102160.03;5075979;28;20212;-80
2022/12/17 17:11:20;;;;;;;9.40;8.00;;;;;;;-2.46;79.41;102163.47;4371711;28;10000760;-80
2022/12/17 17:13:51;;;;;;;11.17;8.17;;;;;;;-2.43;78.98;102168.78;5072066;28;20999;-80
2022/12/17 17:16:20;;;;;;;9.17;8.27;;;;;;;-2.42;78.72;102181.66;5072694;28;20237;-79
2022/12/17 17:18:47;;;;;;;10.93;8.23;;;;;;;-2.49;77.98;102202.53;5072279;28;20876;-79
2022/12/17 17:21:23;;;;;;;12.17;9.43;;;;;;;-2.60;77.94;102217.19;5073552;28;20211;-78
2022/12/17 17:23:52;;;;;;;9.00;8.10;;;;;;;-2.52;78.10;102224.44;5072622;28;20653;-79
2022/12/17 17:26:19;;;;;;;11.30;9.23;;;;;;;-2.49;78.67;102229.78;5072224;28;20229;-76
2022/12/17 17:28:46;;;;;;;10.90;9.80;;;;;;;-2.48;77.94;102237.53;5072886;28;20208;-78
2022/12/17 17:31:14;;;;;;;11.43;9.07;;;;;;;-2.53;77.61;102246.59;5073183;28;20208;-79
2022/12/17 17:33:45;;;;;;;10.50;9.27;;;;;;;-2.59;77.71;102253.88;5073178;28;20212;-78
2022/12/17 17:36:14;;;;;;;10.27;8.80;;;;;;;-2.76;77.01;102263.00;5072230;28;20221;-77
2022/12/17 17:38:42;;;;;;;22.87;17.27;;;;;;;-2.78;77.72;102258.56;5072302;28;20216;-77
2022/12/17 17:41:11;;;;;;;11.93;9.80;;;;;;;-2.78;77.90;102258.56;5071810;28;20217;-77
2022/12/17 17:43:37;;;;;;;13.00;9.63;;;;;;;-2.82;78.02;102262.59;5071693;28;20200;-79
2022/12/17 17:46:05;;;;;;;10.87;9.00;;;;;;;-2.83;78.04;102265.97;5071786;28;20224;-77
2022/12/17 17:48:32;;;;;;;12.17;9.53;;;;;;;-2.80;78.04;102264.47;5071390;28;20213;-76
2022/12/17 17:50:59;;;;;;;9.97;8.97;;;;;;;-2.88;77.67;102268.19;5070902;28;20309;-77
2022/12/17 17:53:26;;;;;;;8.97;8.07;;;;;;;-2.90;78.08;102271.44;5070769;28;20208;-77
2022/12/17 17:55:55;;;;;;;11.13;7.27;;;;;;;-3.11;77.77;102283.66;5069991;28;20225;-76
2022/12/17 17:58:22;;;;;;;6.47;5.73;;;;;;;-2.94;76.37;102302.69;5070428;28;20217;-79
2022/12/17 18:00:48;;;;;;;6.93;5.60;;;;;;;-2.82;77.17;102308.59;5069779;28;20683;-79
2022/12/17 18:03:14;;;;;;;7.43;5.93;;;;;;;-2.83;77.19;102307.72;5069566;28;20208;-79
2022/12/17 18:05:44;;;;;;;5.53;4.83;;;;;;;-2.79;76.85;102298.59;5069629;28;20215;-81
2022/12/17 18:08:10;;;;;;;6.13;5.37;;;;;;;-2.78;77.02;102307.13;5069724;28;20211;-78
2022/12/17 18:10:40;;;;;;;6.27;5.00;;;;;;;-2.77;77.02;102308.88;5069249;28;20303;-82
2022/12/17 18:15:52;;;;;;;6.50;5.50;;;;;;;-2.97;77.08;102313.59;5069939;28;20230;-77
2022/12/17 18:18:19;;;;;;;6.23;5.60;;;;;;;-2.93;77.56;102315.56;5069834;28;20240;-77
2022/12/17 18:20:45;;;;;;;5.60;5.10;;;;;;;-2.97;77.23;102308.47;5068649;28;20209;-79
2022/12/17 18:23:12;;;;;;;5.60;4.90;;;;;;;-2.94;77.33;102305.25;5070297;28;20212;-77
2022/12/17 18:25:38;;;;;;;8.30;4.70;;;;;;;-2.96;77.16;102312.78;5070381;28;20201;-78
2022/12/17 18:28:05;;;;;;;5.20;4.70;;;;;;;-3.02;76.82;102309.84;5070166;28;20216;-79
2022/12/17 18:30:33;;;;;;;8.77;3.53;;;;;;;-3.07;77.11;102317.22;5069871;28;20208;-80
2022/12/17 18:32:59;;;;;;;4.23;3.93;;;;;;;-3.06;76.72;102318.97;5069994;28;20213;-79
2022/12/17 18:35:26;;;;;;;15.93;12.03;;;;;;;-3.05;76.89;102330.97;5069212;28;20268;-81
2022/12/17 18:37:52;;;;;;;6.50;5.43;;;;;;;-2.99;77.14;102333.06;5068240;28;20729;-80
2022/12/17 18:40:19;;;;;;;8.03;5.63;;;;;;;-2.96;76.92;102325.56;5069898;28;20208;-80
2022/12/17 18:45:29;;;;;;;4.53;3.53;;;;;;;-2.96;76.71;102333.22;5070645;28;20286;-80
2022/12/17 18:47:57;;;;;;;3.97;3.67;;;;;;;-3.06;76.72;102352.16;5069510;28;20229;-80
2022/12/17 18:50:24;;;;;;;4.27;3.50;;;;;;;-3.22;76.52;102354.47;5069364;28;20201;-79
2022/12/17 18:52:50;;;;;;;3.40;3.10;;;;;;;-3.19;77.11;102352.16;5070178;28;20205;-79
2022/12/17 18:55:17;;;;;;;5.40;4.27;;;;;;;-3.33;77.04;102343.53;5069377;28;20293;-80
2022/12/17 18:57:43;;;;;;;5.63;3.87;;;;;;;-3.24;77.36;102341.59;5069495;28;20231;-79
2022/12/17 19:00:11;;;;;;;6.07;3.80;;;;;;;-3.22;77.77;102337.47;5069185;28;20212;-79
2022/12/17 19:02:38;;;;;;;4.90;4.40;;;;;;;-3.18;77.43;102336.03;5069898;28;20220;-79
2022/12/17 19:05:06;;;;;;;4.63;4.13;;;;;;;-3.23;77.51;102334.81;5069817;28;20208;-79
2022/12/17 19:07:32;;;;;;;5.73;3.70;;;;;;;-3.20;77.21;102335.91;5068885;28;20244;-78
2022/12/17 19:09:59;;;;;;;4.37;3.97;;;;;;;-3.24;77.31;102344.16;5069159;28;20217;-79
2022/12/17 19:12:25;;;;;;;4.07;3.70;;;;;;;-3.20;77.50;102341.03;5068986;28;20208;-80
2022/12/17 19:14:52;;;;;;;4.50;3.67;;;;;;;-3.27;77.01;102338.84;5069118;28;20315;-80
2022/12/17 19:17:18;;;;;;;3.70;3.33;;;;;;;-3.25;77.35;102337.28;5068357;28;20231;-79
2022/12/17 19:19:50;;;;;;;8.33;3.83;;;;;;;-3.36;76.68;102343.31;5068776;28;20258;-80
2022/12/17 19:22:19;;;;;;;3.77;3.40;;;;;;;-3.33;76.93;102351.22;5069033;28;20216;-81
2022/12/17 19:24:45;;;;;;;3.93;3.53;;;;;;;-3.34;76.91;102362.19;5069536;28;20204;-80
2022/12/17 19:27:12;;;;;;;6.83;6.20;;;;;;;-3.43;77.02;102362.47;5070899;28;20335;-79
2022/12/17 19:29:38;;;;;;;8.93;4.77;;;;;;;-3.55;77.54;102361.59;5069276;28;20223;-81
2022/12/17 19:32:05;;;;;;;4.83;3.97;;;;;;;-3.64;77.48;102350.75;5069216;28;20233;-79
2022/12/17 19:34:33;;;;;;;5.37;3.53;;;;;;;-3.59;77.99;102341.72;5067806;28;20306;-80
2022/12/17 19:37:00;;;;;;;3.43;2.73;;;;;;;-3.55;77.39;102315.63;5068679;28;20599;-79
2022/12/17 19:39:28;;;;;;;4.13;2.93;;;;;;;-3.58;77.39;102332.44;5068019;28;20217;-80
2022/12/17 19:41:54;;;;;;;3.97;3.40;;;;;;;-3.54;77.75;102332.75;5067979;28;20706;-81
2022/12/17 19:44:20;;;;;;;4.40;3.23;;;;;;;-3.53;77.44;102319.19;5068260;28;20217;-80
2022/12/17 19:46:47;;;;;;;3.87;3.43;;;;;;;-3.55;77.64;102325.84;5067116;28;20231;-80
2022/12/17 19:49:15;;;;;;;3.37;3.07;;;;;;;-3.60;77.94;102328.09;5068468;28;20209;-78
2022/12/17 19:51:42;;;;;;;3.93;3.30;;;;;;;-3.57;77.67;102331.63;5068310;28;20231;-80
2022/12/17 19:54:10;;;;;;;3.63;2.90;;;;;;;-3.61;77.45;102328.88;5068163;28;20239;-80
2022/12/17 19:56:38;;;;;;;3.90;3.10;;;;;;;-3.67;77.87;102341.19;5068197;28;20324;-80
2022/12/17 19:59:07;;;;;;;3.07;2.70;;;;;;;-3.64;77.91;102333.75;5068812;28;20216;-79
2022/12/17 20:01:35;;;;;;;4.30;3.10;;;;;;;-3.57;77.73;102332.50;5068055;28;20216;-80
2022/12/17 20:04:02;;;;;;;3.07;2.50;;;;;;;-3.60;77.57;102332.31;5068928;28;20208;-81
2022/12/17 20:06:33;;;;;;;2.60;2.40;;;;;;;-3.65;77.42;102346.41;5069042;28;20236;-80
2022/12/17 20:09:01;;;;;;;3.33;2.67;;;;;;;-3.65;77.44;102349.88;5068875;28;20692;-81
2022/12/17 20:11:33;;;;;;;4.03;2.70;;;;;;;-3.66;76.99;102342.97;5067850;28;20220;-79
2022/12/17 20:14:03;;;;;;;3.63;2.80;;;;;;;-3.67;77.59;102347.97;5068830;28;20694;-80
2022/12/17 20:16:31;;;;;;;3.13;2.57;;;;;;;-3.69;77.52;102352.09;5068649;28;20738;-78
2022/12/17 20:18:58;;;;;;;2.60;2.40;;;;;;;-3.68;77.21;102361.53;5068952;28;20205;-79
2022/12/17 20:21:24;;;;;;;2.77;2.57;;;;;;;-3.74;77.08;102366.22;5068112;28;20207;-79
2022/12/17 20:23:51;;;;;;;4.53;3.63;;;;;;;-3.77;77.58;102365.97;5068442;28;20217;-80
2022/12/17 20:26:18;;;;;;;4.90;3.87;;;;;;;-3.78;77.48;102359.13;5068284;28;20232;-80
2022/12/17 20:28:45;;;;;;;4.93;3.90;;;;;;;-3.82;77.45;102355.47;5070090;28;20216;-80
2022/12/17 20:31:14;;;;;;;5.70;4.73;;;;;;;-3.82;77.61;102351.22;5071733;28;20208;-79
2022/12/17 20:33:40;;;;;;;6.57;5.70;;;;;;;-3.75;77.04;102354.22;5072300;28;20217;-80
2022/12/17 20:36:09;;;;;;;7.43;6.40;;;;;;;-3.78;77.58;102364.22;5072322;28;20782;-79
2022/12/17 20:38:36;;;;;;;8.27;6.47;;;;;;;-3.89;77.74;102361.78;5072330;28;20212;-79
2022/12/17 20:41:08;;;;;;;7.30;6.57;;;;;;;-3.89;77.99;102360.91;5070871;28;20263;-81
2022/12/17 20:43:35;;;;;;;6.77;5.97;;;;;;;-3.93;77.67;102354.69;5072841;28;20236;-79
2022/12/17 20:46:01;;;;;;;10.53;7.03;;;;;;;-3.99;78.38;102351.69;5072646;28;20273;-80
2022/12/17 20:48:29;;;;;;;8.63;7.57;;;;;;;-4.05;77.53;102354.69;5072898;28;20204;-79
2022/12/17 20:50:56;;;;;;;10.17;8.10;;;;;;;-4.07;78.16;102358.81;5072012;28;20207;-79
2022/12/17 20:53:22;;;;;;;10.20;9.13;;;;;;;-4.16;78.11;102350.53;5072177;28;20215;-79
2022/12/17 20:55:59;;;;;;;10.40;8.70;;;;;;;-4.19;78.09;102353.72;5071719;28;20239;-80
2022/12/17 20:58:26;;;;;;;16.63;9.63;;;;;;;-4.17;78.17;102360.59;5072464;28;20208;-79
2022/12/17 21:00:52;;;;;;;10.97;9.33;;;;;;;-4.11;78.36;102349.16;5073121;28;20223;-78
2022/12/17 21:03:19;;;;;;;10.47;9.50;;;;;;;-4.07;78.16;102346.06;5072657;28;20204;-79
2022/12/17 21:05:46;;;;;;;11.53;9.53;;;;;;;-4.11;78.86;102356.81;5072167;28;20861;-79
2022/12/17 21:08:13;;;;;;;11.53;10.00;;;;;;;-4.12;78.29;102349.97;5071938;28;20701;-80
2022/12/17 21:10:39;;;;;;;9.37;8.50;;;;;;;-4.14;78.09;102363.34;5072510;28;20208;-80
2022/12/17 21:15:53;;;;;;;10.17;8.60;;;;;;;-4.14;78.54;102350.59;5072125;28;20224;-79
2022/12/17 21:18:20;;;;;;;12.90;9.93;;;;;;;-4.16;78.93;102345.41;5071548;28;20212;-79
2022/12/17 21:20:56;;;;;;;12.83;10.57;;;;;;;-4.12;78.26;102346.50;5071239;28;20282;-79
2022/12/17 21:23:22;;;;;;;9.77;8.77;;;;;;;-4.10;78.17;102355.16;5071904;28;20622;-79
2022/12/17 21:25:57;;;;;;;10.33;9.30;;;;;;;-4.09;77.99;102359.47;5071606;28;20215;-80
2022/12/17 21:28:23;;;;;;;11.73;9.63;;;;;;;-4.20;78.04;102366.38;5071334;28;20214;-80
2022/12/17 21:30:50;;;;;;;10.30;9.20;;;;;;;-4.21;77.63;102365.47;5071064;28;20295;-79
2022/12/17 21:33:16;;;;;;;11.27;9.53;;;;;;;-4.26;77.70;102373.56;5071536;28;20208;-80
2022/12/17 21:35:43;;;;;;;10.50;9.57;;;;;;;-4.32;78.34;102370.56;5071055;28;20231;-80
2022/12/17 21:38:11;;;;;;;12.13;9.33;;;;;;;-4.30;78.47;102363.91;5071141;28;20557;-79
2022/12/17 21:40:37;;;;;;;10.60;9.43;;;;;;;-4.26;78.23;102365.91;5070654;28;20216;-79
2022/12/17 21:43:04;;;;;;;10.97;8.80;;;;;;;-4.31;77.97;102368.13;5070964;28;20231;-79
2022/12/17 21:45:35;;;;;;;11.10;9.40;;;;;;;-4.32;78.13;102378.22;5071300;28;20204;-80
2022/12/17 21:48:01;;;;;;;10.93;9.83;;;;;;;-4.41;78.50;102383.53;5071051;28;20749;-79
2022/12/17 21:50:28;;;;;;;12.30;10.00;;;;;;;-4.42;78.60;102382.66;5070979;28;20262;-78
2022/12/17 21:52:54;;;;;;;10.80;9.50;;;;;;;-4.47;78.51;102385.66;5070939;28;20216;-81
2022/12/17 21:55:22;;;;;;;11.13;9.63;;;;;;;-4.53;78.79;102382.66;5070869;28;20478;-81
2022/12/17 21:57:49;;;;;;;11.27;10.07;;;;;;;-4.47;78.95;102370.34;5070456;28;20229;-79
2022/12/17 22:00:16;;;;;;;10.03;9.03;;;;;;;-4.50;78.82;102365.94;5070830;28;20208;-81
2022/12/17 22:02:42;;;;;;;10.10;8.70;;;;;;;-4.51;78.73;102371.78;5070961;28;20203;-80
2022/12/17 22:05:10;;;;;;;10.20;9.10;;;;;;;-4.47;78.51;102366.13;5071148;28;20209;-80
2022/12/17 22:07:36;;;;;;;10.47;9.07;;;;;;;-4.44;78.53;102370.56;5070841;28;20640;-79
2022/12/17 22:10:02;;;;;;;9.20;8.30;;;;;;;-4.45;78.82;102368.81;5070338;28;20201;-80
2022/12/17 22:15:14;;;;;;;10.30;8.17;;;;;;;-4.55;79.06;102367.25;5070784;28;20868;-81
2022/12/17 22:17:41;;;;;;;10.00;8.97;;;;;;;-4.56;78.93;102367.13;5070985;28;20272;-80
2022/12/17 22:20:09;;;;;;;9.60;8.60;;;;;;;-4.62;78.48;102368.47;5070484;28;20200;-80
2022/12/17 22:22:35;;;;;;;9.53;8.33;;;;;;;-4.59;78.75;102370.34;5070275;28;20221;-79
2022/12/17 22:25:02;;;;;;;10.33;8.63;;;;;;;-4.61;78.47;102377.88;5071369;28;20212;-80
2022/12/17 22:27:30;;;;;;;9.27;7.67;;;;;;;-4.69;78.48;102388.28;5070727;28;20233;-81
2022/12/17 22:35:25;;;;;;;8.10;6.73;;;;;;;-4.60;79.73;102366.91;5070824;28;20667;-80
2022/12/17 22:37:52;;;;;;;7.13;6.43;;;;;;;-4.66;80.13;102358.81;5071123;28;20236;-80
2022/12/17 22:40:21;;;;;;;7.60;6.63;;;;;;;-4.61;79.88;102347.28;5070628;28;20218;-79
2022/12/17 22:45:32;;;;;;;8.63;7.10;;;;;;;-4.70;79.27;102361.00;5071041;28;20681;-80
2022/12/17 22:47:59;;;;;;;12.43;7.33;;;;;;;-4.71;79.18;102359.25;5070831;28;20229;-79
2022/12/17 22:50:25;;;;;;;10.00;7.57;;;;;;;-4.71;79.31;102351.59;5070703;28;20212;-79
2022/12/17 22:52:52;;;;;;;11.07;7.67;;;;;;;-4.72;79.26;102352.38;5069780;28;20217;-80
2022/12/17 22:55:18;;;;;;;8.57;7.67;;;;;;;-4.76;79.51;102348.69;5070046;28;20212;-79
2022/12/17 22:57:45;;;;;;;11.13;7.47;;;;;;;-4.72;79.32;102354.91;5070588;28;20620;-80
2022/12/17 23:00:20;;;;;;;8.40;7.53;;;;;;;-4.75;78.67;102354.69;5070468;28;20220;-80
2022/12/17 23:02:47;;;;;;;9.07;7.57;;;;;;;-4.80;79.91;102362.91;5070433;28;20991;-80
2022/12/17 23:05:13;;;;;;;10.07;7.93;;;;;;;-4.77;79.63;102358.81;5070167;28;20216;-81
2022/12/17 23:07:40;;;;;;;8.27;7.23;;;;;;;-4.81;79.46;102356.00;5070673;28;20228;-79
2022/12/17 23:10:07;;;;;;;8.67;7.87;;;;;;;-4.86;79.14;102357.31;5070367;28;20535;-80
2022/12/17 23:12:52;;;;;;;10.43;8.03;;;;;;;-4.85;79.49;102355.69;5069445;28;20633;-80
2022/12/17 23:15:24;;;;;;;10.90;8.50;;;;;;;-4.85;79.61;102341.28;5070382;28;20228;-79
2022/12/17 23:17:52;;;;;;;8.13;7.33;;;;;;;-4.84;79.65;102337.06;5070358;28;20229;-79
2022/12/17 23:20:19;;;;;;;9.10;8.17;;;;;;;-4.82;79.65;102338.06;5069763;28;20971;-79
2022/12/17 23:22:46;;;;;;;9.37;8.50;;;;;;;-4.87;79.59;102331.75;5070238;28;20261;-79
2022/12/17 23:25:13;;;;;;;8.00;7.20;;;;;;;-4.89;79.25;102326.53;5069819;28;20217;-80
2022/12/17 23:27:39;;;;;;;9.70;7.87;;;;;;;-4.82;79.72;102330.41;5069946;28;20228;-80
2022/12/17 23:30:09;;;;;;;7.90;7.10;;;;;;;-4.75;79.47;102334.31;5069917;28;20679;-80
2022/12/17 23:32:37;;;;;;;7.90;7.10;;;;;;;-4.76;79.09;102333.41;5070370;28;20217;-81
2022/12/17 23:35:04;;;;;;;8.50;7.50;;;;;;;-4.83;79.34;102336.31;5070414;28;20239;-81
2022/12/17 23:37:30;;;;;;;8.53;7.70;;;;;;;-4.79;79.26;102336.63;5070378;28;20250;-80
2022/12/17 23:39:57;;;;;;;8.90;7.33;;;;;;;-4.80;79.96;102337.44;5070070;28;20615;-80
2022/12/17 23:42:23;;;;;;;7.67;6.87;;;;;;;-4.77;79.74;102341.84;5070702;28;20205;-81
2022/12/17 23:44:50;;;;;;;7.93;7.23;;;;;;;-4.74;80.03;102339.50;5070550;28;20217;-78
2022/12/17 23:47:16;;;;;;;7.77;6.90;;;;;;;-4.80;79.18;102342.50;5070369;28;20722;-81
2022/12/17 23:49:44;;;;;;;9.17;8.27;;;;;;;-4.79;79.05;102349.38;5070285;28;20213;-80
2022/12/17 23:52:10;;;;;;;8.13;7.33;;;;;;;-4.81;79.59;102360.22;5070255;28;20227;-82
2022/12/17 23:54:37;;;;;;;10.03;6.67;;;;;;;-4.87;79.45;102369.97;5070089;28;20212;-80
2022/12/17 23:57:04;;;;;;;7.33;6.63;;;;;;;-4.92;79.26;102368.72;5070000;28;20576;-80
2022/12/17 23:59:30;;;;;;;8.30;7.43;;;;;;;-4.83;79.20;102361.78;5070109;28;20216;-81
